»·PEaware :: AAL576 KABQ-KSNA

AAL576 :: KABQ-KSNA

FLIGHT INFORMATION

Flight Status: Arrived
Operator:
American Airlines
More flights by this operator :: More flights under this callsign
Pilot: Anonymous 8274 (8274)
Aircraft: BOEING 727-100
(B721)
More flights by this aircraft type
Origin: KABQ Albuquerque Intl Sunport
United States
Destination: KSNA John Wayne-Orange Co
United States
More flights between these airports :: More routes between these airports
Route: LARGO3 RSK J64 TBC J76 LAS J9 MISEN HEC KAYOH7
File this flight plan on PilotEdge
Remarks: Northly SCENIC routing Intentional
Altitude:
(Current/Filed)
32,000ft
Speed:
(Current/Filed)
460kts
Departed: 15-Aug-18 05:37 PM
Arrived: 15-Aug-18 07:26 PM
Distance/Time
Traveled:
563nm/1:49
Distance/Time
To Go:
Arrived

Flight Plot

Page will automatically refresh every two minutes.

Flight plan parsing failed; only flown route is shown


Map Options




Map Legend


Flown Route
Filed Route
Departure Airport
Arrival Airport
Navaid (VOR, NDB)
Fix

Horizontal Profiles

Position Reports

Time Latitude Longitude Heading Altitude Ground
Speed
15-Aug-18 16:39 35.047885 -106.615224 180 5320ft 0kts
15-Aug-18 16:40 35.047885 -106.615224 180 5320ft 0kts
15-Aug-18 16:41 35.047885 -106.615224 180 5320ft 0kts
15-Aug-18 16:42 35.047885 -106.615224 180 5320ft 0kts
15-Aug-18 16:43 35.047885 -106.615224 180 5320ft 0kts
15-Aug-18 16:44 35.047885 -106.615224 180 5320ft 0kts
15-Aug-18 16:45 35.047885 -106.615224 180 5320ft 0kts
15-Aug-18 16:46 35.047885 -106.615224 180 5320ft 0kts
15-Aug-18 16:47 35.047885 -106.615224 180 5320ft 0kts
15-Aug-18 16:48 35.047885 -106.615224 180 5320ft 0kts
15-Aug-18 16:49 35.047885 -106.615224 180 5320ft 0kts
15-Aug-18 16:50 35.047885 -106.615224 180 5320ft 0kts
15-Aug-18 16:51 35.047885 -106.615224 180 5320ft 0kts
15-Aug-18 16:52 35.047885 -106.615224 180 5320ft 0kts
15-Aug-18 16:53 35.047885 -106.615224 180 5320ft 0kts
15-Aug-18 16:54 35.047885 -106.615224 180 5320ft 0kts
15-Aug-18 16:55 35.047885 -106.615224 180 5320ft 0kts
15-Aug-18 16:56 35.047885 -106.615224 180 5320ft 0kts
15-Aug-18 16:57 35.047885 -106.615224 180 5320ft 0kts
15-Aug-18 16:58 35.047885 -106.615224 180 5320ft 0kts
15-Aug-18 16:59 35.047885 -106.615224 180 5320ft 0kts
15-Aug-18 17:00 35.047885 -106.615224 180 5320ft 0kts
15-Aug-18 17:01 35.047885 -106.615224 180 5320ft 0kts
15-Aug-18 17:02 35.047885 -106.615224 180 5320ft 0kts
15-Aug-18 17:03 35.047885 -106.615224 180 5320ft 0kts
15-Aug-18 17:04 35.047885 -106.615224 180 5320ft 0kts
15-Aug-18 17:05 35.047885 -106.615224 180 5320ft 0kts
15-Aug-18 17:06 35.047885 -106.615224 180 5320ft 0kts
15-Aug-18 17:07 35.047885 -106.615224 180 5320ft 0kts
15-Aug-18 17:08 35.047885 -106.615224 180 5320ft 0kts
15-Aug-18 17:09 35.047885 -106.615224 180 5320ft 0kts
15-Aug-18 17:10 35.047885 -106.615224 180 5320ft 0kts
15-Aug-18 17:11 35.047885 -106.615224 180 5320ft 0kts
15-Aug-18 17:12 35.047885 -106.615224 180 5320ft 0kts
15-Aug-18 17:13 35.047885 -106.615224 180 5320ft 0kts
15-Aug-18 17:14 35.047885 -106.615224 180 5320ft 0kts
15-Aug-18 17:15 35.047885 -106.615224 180 5320ft 0kts
15-Aug-18 17:16 35.047885 -106.615224 180 5320ft 0kts
15-Aug-18 17:17 35.047885 -106.615224 180 5320ft 0kts
15-Aug-18 17:18 35.047885 -106.615224 180 5320ft 0kts
15-Aug-18 17:19 35.047885 -106.615224 180 5320ft 0kts
15-Aug-18 17:20 35.047885 -106.615224 180 5320ft 0kts
15-Aug-18 17:21 35.047885 -106.615224 180 5320ft 0kts
15-Aug-18 17:22 35.047885 -106.615224 180 5320ft 0kts
15-Aug-18 17:23 35.047891 -106.615224 181 5320ft 1kts
15-Aug-18 17:24 35.048370 -106.615359 143 5320ft 2kts
15-Aug-18 17:25 35.048488 -106.615688 89 5320ft 0kts
15-Aug-18 17:26 35.048488 -106.615688 89 5320ft 0kts
15-Aug-18 17:27 35.048488 -106.615688 89 5320ft 0kts
15-Aug-18 17:28 35.048488 -106.615688 89 5320ft 0kts
15-Aug-18 17:29 35.048488 -106.615641 89 5320ft 2kts
15-Aug-18 17:30 35.048349 -106.614181 91 5320ft 0kts
15-Aug-18 17:31 35.048349 -106.614181 91 5320ft 0kts
15-Aug-18 17:32 35.046307 -106.613160 191 5320ft 17kts
15-Aug-18 17:33 35.045625 -106.618816 274 5320ft 24kts
15-Aug-18 17:34 35.045350 -106.621301 206 5320ft 0kts
15-Aug-18 17:35 35.045350 -106.621301 206 5320ft 0kts
15-Aug-18 17:36 35.045350 -106.621301 206 5320ft 0kts
15-Aug-18 17:37 35.044326 -106.621063 80 5320ft 8kts
15-Aug-18 17:38 35.044107 -106.601935 88 5401ft 152kts
15-Aug-18 17:39 35.075081 -106.581140 317 7556ft 204kts
15-Aug-18 17:40 35.118615 -106.646934 313 9229ft 295kts
15-Aug-18 17:41 35.163465 -106.714023 313 11436ft 333kts
15-Aug-18 17:42 35.223996 -106.801415 312 14796ft 342kts
15-Aug-18 17:43 35.304825 -106.861320 349 17170ft 373kts
15-Aug-18 17:44 35.426022 -106.878229 355 20218ft 383kts
15-Aug-18 17:45 35.515471 -106.889936 355 21951ft 396kts
15-Aug-18 17:46 35.626428 -106.903838 355 23810ft 410kts
15-Aug-18 17:47 35.741221 -106.917550 355 25495ft 423kts
15-Aug-18 17:48 35.859681 -106.931432 353 26989ft 434kts
15-Aug-18 17:49 35.980503 -106.952258 350 28338ft 445kts
15-Aug-18 17:50 36.070429 -107.048781 300 29506ft 446kts
15-Aug-18 17:51 36.138332 -107.179058 300 30581ft 457kts
15-Aug-18 17:52 36.215586 -107.302911 307 32002ft 455kts
15-Aug-18 17:53 36.298659 -107.424799 307 32310ft 477kts
15-Aug-18 17:54 36.384505 -107.550902 308 32131ft 482kts
15-Aug-18 17:55 36.470664 -107.677373 307 32131ft 484kts
15-Aug-18 17:56 36.557068 -107.803983 307 32130ft 485kts
15-Aug-18 17:57 36.642090 -107.933947 304 32130ft 484kts
15-Aug-18 17:58 36.711511 -108.074357 277 32144ft 470kts
15-Aug-18 17:59 36.728423 -108.235789 262 32118ft 467kts
15-Aug-18 18:00 36.691328 -108.387849 248 32132ft 463kts
15-Aug-18 18:01 36.659549 -108.543602 256 32132ft 469kts
15-Aug-18 18:02 36.636115 -108.699899 256 32131ft 472kts
15-Aug-18 18:03 36.612037 -108.860540 255 32129ft 475kts
15-Aug-18 18:04 36.581319 -109.020732 253 32130ft 476kts
15-Aug-18 18:05 36.550511 -109.180664 253 32130ft 478kts
15-Aug-18 18:06 36.519725 -109.341219 253 32263ft 478kts
15-Aug-18 18:07 36.489156 -109.501474 253 32265ft 480kts
15-Aug-18 18:08 36.459126 -109.659446 253 32240ft 482kts
15-Aug-18 18:09 36.428399 -109.821518 253 32237ft 483kts
15-Aug-18 18:10 36.397811 -109.983563 253 32237ft 484kts
15-Aug-18 18:11 36.367305 -110.145910 253 32290ft 484kts
15-Aug-18 18:12 36.335923 -110.307740 252 32153ft 483kts
15-Aug-18 18:13 36.301194 -110.467830 252 32072ft 478kts
15-Aug-18 18:14 36.263405 -110.624199 250 32072ft 471kts
15-Aug-18 18:15 36.226099 -110.775861 249 32072ft 467kts
15-Aug-18 18:16 36.190619 -110.929578 252 32071ft 463kts
15-Aug-18 18:17 36.160091 -111.083368 253 32072ft 460kts
15-Aug-18 18:18 36.130195 -111.235699 264 32104ft 454kts
15-Aug-18 18:19 36.118348 -111.389815 262 32260ft 447kts
15-Aug-18 18:20 36.112851 -111.542154 269 32261ft 444kts
15-Aug-18 18:21 36.113099 -111.692196 268 32265ft 443kts
15-Aug-18 18:22 36.111501 -111.844360 268 32264ft 442kts
15-Aug-18 18:23 36.113112 -111.993384 271 32263ft 441kts
15-Aug-18 18:24 36.119551 -112.142634 271 32262ft 441kts
15-Aug-18 18:25 36.123787 -112.294003 271 32264ft 441kts
15-Aug-18 18:26 36.124860 -112.445406 271 32264ft 441kts
15-Aug-18 18:27 36.127265 -112.596932 272 32261ft 439kts
15-Aug-18 18:28 36.130886 -112.743833 271 32265ft 438kts
15-Aug-18 18:29 36.134531 -112.894209 271 32145ft 440kts
15-Aug-18 18:30 36.137934 -113.045534 271 32100ft 441kts
15-Aug-18 18:31 36.139859 -113.197187 271 32104ft 441kts
15-Aug-18 18:32 36.125979 -113.347592 263 32102ft 441kts
15-Aug-18 18:33 36.109139 -113.497990 263 32101ft 442kts
15-Aug-18 18:34 36.092440 -113.647940 263 32101ft 443kts
15-Aug-18 18:35 36.076228 -113.793960 262 32103ft 444kts
15-Aug-18 18:36 36.062469 -113.945964 265 31995ft 446kts
15-Aug-18 18:37 36.053188 -114.098336 267 31942ft 447kts
15-Aug-18 18:38 36.048099 -114.251326 271 31942ft 446kts
15-Aug-18 18:39 36.055794 -114.403619 276 31940ft 444kts
15-Aug-18 18:40 36.068215 -114.555698 276 31940ft 445kts
15-Aug-18 18:41 36.080318 -114.704021 274 31941ft 448kts
15-Aug-18 18:42 36.084238 -114.858166 272 31920ft 453kts
15-Aug-18 18:43 36.082355 -115.013417 267 31914ft 457kts
15-Aug-18 18:44 36.069456 -115.168839 248 31913ft 462kts
15-Aug-18 18:45 35.979831 -115.281419 220 31927ft 468kts
15-Aug-18 18:46 35.886692 -115.385560 226 31965ft 468kts
15-Aug-18 18:47 35.796297 -115.500552 229 31913ft 471kts
15-Aug-18 18:48 35.708914 -115.620383 230 31965ft 473kts
15-Aug-18 18:49 35.626650 -115.732768 229 31961ft 476kts
15-Aug-18 18:50 35.538075 -115.853664 229 31968ft 478kts
15-Aug-18 18:51 35.446581 -115.971098 227 31967ft 480kts
15-Aug-18 18:52 35.351635 -116.086077 225 31940ft 483kts
15-Aug-18 18:53 35.255920 -116.199386 225 31921ft 465kts
15-Aug-18 18:54 35.179624 -116.290418 226 31002ft 429kts
15-Aug-18 18:55 35.101464 -116.393290 227 28714ft 411kts
15-Aug-18 18:56 35.006724 -116.456184 184 25607ft 402kts
15-Aug-18 18:57 34.899411 -116.458441 181 23907ft 393kts
15-Aug-18 18:58 34.793144 -116.463180 191 23890ft 396kts
15-Aug-18 18:59 34.711349 -116.548276 231 23902ft 398kts
15-Aug-18 19:00 34.646315 -116.653684 228 22810ft 395kts
15-Aug-18 19:01 34.577390 -116.743063 223 20895ft 386kts
15-Aug-18 19:02 34.501969 -116.832834 223 18958ft 378kts
15-Aug-18 19:03 34.428166 -116.920738 223 17112ft 368kts
15-Aug-18 19:04 34.354654 -117.003717 220 15336ft 358kts
15-Aug-18 19:05 34.283710 -117.080674 220 13677ft 349kts
15-Aug-18 19:06 34.207118 -117.136720 183 12972ft 302kts
15-Aug-18 19:07 34.124783 -117.140363 180 12988ft 321kts
15-Aug-18 19:08 34.031440 -117.144472 184 12963ft 329kts
15-Aug-18 19:09 33.947108 -117.155516 186 12982ft 294kts
15-Aug-18 19:10 33.868014 -117.168802 186 12209ft 297kts
15-Aug-18 19:11 33.787235 -117.184628 191 10912ft 290kts
15-Aug-18 19:12 33.755889 -117.263701 276 9574ft 296kts
15-Aug-18 19:13 33.777845 -117.357662 274 8290ft 287kts
15-Aug-18 19:14 33.781685 -117.450005 268 7983ft 277kts
15-Aug-18 19:15 33.782835 -117.542402 268 7963ft 274kts
15-Aug-18 19:16 33.794895 -117.624686 287 7792ft 237kts
15-Aug-18 19:17 33.816924 -117.696790 287 6771ft 230kts
15-Aug-18 19:18 33.838837 -117.768634 287 4866ft 226kts
15-Aug-18 19:19 33.875737 -117.821594 358 3418ft 232kts
15-Aug-18 19:20 33.907365 -117.771572 109 2987ft 229kts
15-Aug-18 19:21 33.859827 -117.739089 182 2975ft 220kts
15-Aug-18 19:22 33.811616 -117.768299 243 2961ft 201kts
15-Aug-18 19:23 33.773981 -117.809399 199 2298ft 178kts
15-Aug-18 19:24 33.735530 -117.830839 207 1176ft 134kts
15-Aug-18 19:25 33.705784 -117.849734 207 668ft 117kts
15-Aug-18 19:26 33.677322 -117.867798 207 69ft 108kts
15-Aug-18 19:27 33.669199 -117.870818 47 68ft 13kts
15-Aug-18 19:28 33.672963 -117.867388 43 68ft 20kts
15-Aug-18 19:29 33.678486 -117.863665 29 68ft 9kts
15-Aug-18 19:30 33.678704 -117.862766 100 68ft 0kts

Navigation Log

Ident Type
Flight plan parsing failed, navigation log unavailable